Latest Weather Observations for Coldstream

IDV60901

Issued at 7:21 pm EST Friday 31 July 2015 (issued every 10 minutes, with the page automatically refreshed every 10 minutes)

About weather observations | Map of Melbourne area stations | Latest observations for Melbourne area | Other Formats
Station Details ID: 086383 Name: COLDSTREAM Lat: -37.72 Lon: 145.41 Height: 83.0 m
Data from the previous 72 hours. | See also: Recent months at Coldstream
Date/Time
EST
Tmp

°C
App
Tmp
°C
Dew
Point
°C
Rel
Hum
%
Delta-T

°C
Wind Press
QNH
hPa
Press
MSL
hPa
Rain
since
9 am
mm
Dir
 
Spd
km/h
Gust
km/h
Spd
kts
Gust
kts
31/07:00pm 9.5 5.5 2.6 62 2.9 N 13 24 7 13 1016.8 1016.9 0.0
31/06:30pm 9.6 5.1 2.2 60 3.1 N 15 24 8 13 1016.4 1016.5 0.0
31/06:00pm 9.8 5.8 2.6 61 3.1 NNW 13 24 7 13 1016.4 1016.5 0.0
31/05:30pm 10.2 5.9 3.3 62 3.0 NNW 15 26 8 14 1016.2 1016.3 0.0
31/05:00pm 11.2 7.0 3.7 60 3.3 N 15 20 8 11 1015.9 1016.0 0.0
31/04:30pm 11.8 6.6 3.8 58 3.6 NNW 20 30 11 16 1016.0 1016.1 0.0
31/04:00pm 12.0 6.9 4.0 58 3.6 N 20 32 11 17 1016.6 1016.7 0.0
31/03:30pm 12.0 5.9 3.0 54 4.0 N 24 32 13 17 1016.9 1017.0 0.0
31/03:00pm 12.5 7.4 4.0 56 3.8 N 20 33 11 18 1017.1 1017.2 0.0
31/02:30pm 12.8 7.9 4.0 55 4.0 N 19 30 10 16 1017.2 1017.3 0.0
31/02:00pm 12.8 10.3 4.5 57 3.8 NNW 7 11 4 6 1017.7 1017.8 0.0
31/01:30pm 12.1 9.2 4.6 60 3.4 N 9 17 5 9 1018.4 1018.6 0.0
31/01:00pm 11.7 8.8 4.7 62 3.2 NNE 9 13 5 7 1019.2 1019.4 0.0
31/12:30pm 11.2 7.8 4.0 61 3.2 N 11 19 6 10 1019.9 1020.1 0.0
31/12:00pm 10.9 8.0 4.8 66 2.8 NNE 9 13 5 7 1020.7 1020.9 0.0
31/11:30am 10.5 7.6 4.6 67 2.7 NNW 9 15 5 8 1021.4 1021.6 0.0
31/11:00am 9.6 7.0 4.4 70 2.3 NNW 7 13 4 7 1021.6 1021.8 0.0
31/10:30am 8.2 5.6 4.2 76 1.8 NNW 7 11 4 6 1021.9 1022.1 0.0
31/10:00am 7.7 7.1 7.6 99 0.0 CALM 0 0 0 0 1021.7 1021.9 0.0
31/09:30am 4.6 3.4 4.5 99 0.0 CALM 0 0 0 0 1021.8 1022.0 0.0
31/09:00am 0.5 -1.4 0.4 99 0.0 CALM 0 0 0 0 1021.8 1022.0 1.2
31/08:30am -0.1 -2.1 -0.2 99 0.0 CALM 0 0 0 0 1021.7 1021.9 1.2
31/08:00am -1.0 -3.5 -1.3 98 0.1 S 2 7 1 4 1021.5 1021.7 1.2
31/07:30am -1.2 -3.4 -1.5 98 0.0 CALM 0 0 0 0 1021.0 1021.2 1.2
31/07:00am -1.2 -3.4 -1.5 98 0.0 CALM 0 0 0 0 1020.6 1020.8 1.2
31/06:30am -1.0 -3.2 -1.3 98 0.1 CALM 0 0 0 0 1020.3 1020.5 1.2
31/06:00am -0.6 -2.7 -0.9 98 0.1 CALM 0 0 0 0 1020.0 1020.2 1.2
31/05:30am -0.1 -2.1 -0.4 98 0.1 CALM 0 0 0 0 1019.9 1020.1 1.2
31/05:00am -0.2 -2.3 -0.5 98 0.1 CALM 0 0 0 0 1019.6 1019.8 1.2
31/04:30am 0.3 -1.7 -0.1 97 0.1 CALM 0 6 0 3 1019.3 1019.5 1.2
31/04:00am 0.8 -1.1 0.4 97 0.1 CALM 0 0 0 0 1019.2 1019.4 1.2
31/03:30am 1.6 -0.2 1.2 97 0.2 CALM 0 0 0 0 1019.1 1019.3 1.2
31/03:00am 2.4 0.3 2.0 97 0.2 ESE 2 7 1 4 1019.0 1019.2 1.2
31/02:30am 2.4 -0.1 1.7 95 0.3 ESE 4 7 2 4 1019.1 1019.3 1.2
31/02:00am 5.1 3.9 4.5 96 0.3 CALM 0 0 0 0 1019.0 1019.2 1.2
31/01:30am 5.0 3.7 4.3 95 0.3 CALM 0 0 0 0 1018.7 1018.9 1.2
31/01:00am 4.5 3.0 2.8 89 0.7 CALM 0 0 0 0 1018.8 1019.0 1.2
31/12:30am 7.2 6.1 5.2 87 0.9 CALM 0 0 0 0 1018.7 1018.9 1.2
31/12:00am 8.4 6.3 5.9 84 1.1 N 6 9 3 5 1018.6 1018.8 1.2
 
Date/Time
EST
Tmp

°C
App
Tmp
°C
Dew
Point
°C
Rel
Hum
%
Delta-T

°C
Wind Press
QNH
hPa
Press
MSL
hPa
Rain
since
9 am
mm
Dir
 
Spd
km/h
Gust
km/h
Spd
kts
Gust
kts
30/11:30pm 8.8 5.4 5.9 82 1.3 NW 13 19 7 10 1018.5 1018.7 1.2
30/11:00pm 9.0 4.9 6.3 83 1.2 NW 17 28 9 15 1018.3 1018.5 1.2
30/10:30pm 9.2 5.7 7.0 86 1.0 WNW 15 22 8 12 1018.3 1018.5 1.2
30/10:00pm 8.7 5.9 7.0 89 0.8 NW 11 20 6 11 1017.7 1017.8 1.0
30/09:30pm 8.7 4.1 6.7 87 0.9 NNW 20 32 11 17 1017.2 1017.3 0.4
30/09:00pm 8.9 4.2 6.2 83 1.2 NNW 20 39 11 21 1016.8 1016.9 0.2
30/08:30pm 9.5 4.7 5.5 76 1.8 N 20 33 11 18 1016.4 1016.5 0.2
30/08:11pm 9.8 3.4 5.0 72 2.2 N 28 46 15 25 1016.2 1016.3 0.2
30/08:00pm 10.1 2.8 4.7 69 2.4 N 32 48 17 26 1016.0 1016.1 0.2
30/07:30pm 10.4 3.8 4.1 65 2.8 NNW 28 46 15 25 1015.9 1016.0 0.2
30/07:00pm 10.7 3.6 3.3 60 3.2 NNW 30 59 16 32 1014.9 1015.0 0.2
30/06:30pm 10.8 3.2 2.9 58 3.4 N 32 56 17 30 1014.1 1014.2 0.2
30/06:00pm 10.8 3.0 3.1 59 3.4 N 33 57 18 31 1013.9 1014.1 0.2
30/05:30pm 10.5 2.1 3.8 63 3.0 N 37 63 20 34 1012.9 1013.1 0.2
30/05:00pm 10.5 3.5 4.2 65 2.8 N 30 56 16 30 1013.1 1013.3 0.2
30/04:33pm 10.5 3.1 4.0 64 2.9 N 32 54 17 29 1013.6 1013.8 0.0
30/04:30pm 10.5 3.5 4.0 64 2.9 N 30 46 16 25 1013.6 1013.8 0.0
30/04:00pm 10.6 3.6 3.9 63 3.0 N 30 52 16 28 1013.5 1013.7 0.0
30/03:57pm 10.6 3.6 3.9 63 3.0 N 30 52 16 28 1013.4 1013.6 0.0
30/03:30pm 10.5 5.0 4.2 65 2.8 N 22 35 12 19 1014.6 1014.7 0.0
30/03:11pm 10.4 3.9 4.5 67 2.7 N 28 48 15 26 1015.2 1015.3 0.0
30/03:00pm 10.1 3.9 4.5 68 2.5 N 26 43 14 23 1015.3 1015.4 0.0
30/02:48pm 10.4 3.8 4.3 66 2.7 N 28 54 15 29 1015.2 1015.3 0.0
30/02:30pm 10.2 4.0 4.4 67 2.6 N 26 44 14 24 1015.6 1015.7 0.0
30/02:00pm 10.4 3.4 4.3 66 2.7 N 30 46 16 25 1015.8 1015.9 0.0
30/01:30pm 10.5 3.0 4.2 65 2.8 N 33 61 18 33 1016.5 1016.6 0.0
30/01:11pm 10.8 3.2 4.0 63 3.0 N 33 52 18 28 1017.4 1017.5 0.0
30/01:00pm 10.9 3.4 4.4 64 2.9 N 33 50 18 27 1017.7 1017.8 0.0
30/12:31pm 10.9 3.0 4.1 63 3.0 N 35 54 19 29 1018.4 1018.6 0.0
30/12:30pm 10.9 2.6 4.1 63 3.0 N 37 54 20 29 1018.5 1018.7 0.0
30/12:02pm 10.8 2.9 4.3 64 2.9 N 35 54 19 29 1018.7 1018.9 0.0
30/12:00pm 10.8 2.5 4.0 63 3.0 N 37 54 20 29 1018.7 1018.9 0.0
30/11:30am 10.7 3.2 4.4 65 2.8 N 33 52 18 28 1019.5 1019.7 0.0
30/11:00am 10.6 3.0 4.1 64 2.9 N 33 52 18 28 1020.5 1020.7 0.0
30/10:30am 10.7 3.2 4.4 65 2.8 N 33 54 18 29 1021.5 1021.7 0.0
30/10:28am 10.5 2.5 3.8 63 3.0 N 35 54 19 29 1021.4 1021.6 0.0
30/10:00am 10.7 4.4 3.7 62 3.1 N 26 39 14 21 1021.5 1021.7 0.0
30/09:30am 10.4 3.7 3.4 62 3.1 N 28 44 15 24 1021.5 1021.7 0.0
30/09:19am 10.4 3.6 3.2 61 3.1 N 28 46 15 25 1021.4 1021.6 0.0
30/09:00am 9.9 3.9 3.4 64 2.8 N 24 41 13 22 1021.7 1021.9 0.0
30/08:30am 9.7 3.0 3.4 65 2.7 N 28 44 15 24 1021.6 1021.8 0.0
30/08:00am 9.1 3.1 3.5 68 2.4 N 24 39 13 21 1021.4 1021.6 0.0
30/07:30am 8.7 3.5 3.5 70 2.2 N 20 37 11 20 1021.7 1021.9 0.0
30/07:00am 8.8 3.8 3.8 71 2.2 N 19 37 10 20 1022.0 1022.2 0.0
30/06:30am 8.8 3.6 3.6 70 2.3 N 20 35 11 19 1022.3 1022.5 0.0
30/06:00am 8.3 3.3 3.6 72 2.0 N 19 33 10 18 1022.4 1022.6 0.0
30/05:30am 8.1 3.5 3.6 73 1.9 N 17 30 9 16 1022.7 1022.9 0.0
30/05:00am 8.1 3.9 3.6 73 1.9 NNW 15 22 8 12 1023.1 1023.3 0.0
30/04:30am 7.3 3.8 3.4 76 1.7 NNW 11 13 6 7 1023.4 1023.6 0.0
30/04:00am 8.1 3.8 3.4 72 2.0 NNW 15 26 8 14 1023.7 1023.9 0.0
30/03:30am 7.5 4.0 3.4 75 1.7 N 11 17 6 9 1023.4 1023.6 0.0
30/03:00am 8.2 4.4 3.7 73 1.9 N 13 20 7 11 1024.4 1024.6 0.0
30/02:30am 7.4 4.2 3.3 75 1.7 NNW 9 13 5 7 1024.9 1025.1 0.0
30/02:00am 8.1 4.2 3.4 72 2.0 NNW 13 20 7 11 1025.1 1025.3 0.0
30/01:30am 8.0 4.5 3.5 73 1.9 N 11 22 6 12 1025.4 1025.6 0.0
30/01:00am 7.9 3.7 3.9 76 1.7 N 15 24 8 13 1025.6 1025.8 0.0
30/12:30am 7.8 4.8 4.0 77 1.6 N 9 15 5 8 1026.7 1026.8 0.0
30/12:00am 6.8 3.7 3.8 81 1.3 N 9 17 5 9 1027.0 1027.1 0.0
 
Date/Time
EST
Tmp

°C
App
Tmp
°C
Dew
Point
°C
Rel
Hum
%
Delta-T

°C
Wind Press
QNH
hPa
Press
MSL
hPa
Rain
since
9 am
mm
Dir
 
Spd
km/h
Gust
km/h
Spd
kts
Gust
kts
29/11:30pm 7.5 4.9 4.1 79 1.5 NNW 7 9 4 5 1027.4 1027.5 0.0
29/11:00pm 8.6 5.2 4.2 74 1.9 N 11 19 6 10 1027.3 1027.4 0.0
29/10:30pm 8.4 5.9 5.0 79 1.5 NNW 7 11 4 6 1027.8 1027.9 0.0
29/10:00pm 7.9 5.5 4.5 79 1.5 NW 6 11 3 6 1028.0 1028.2 0.0
29/09:30pm 8.1 5.5 4.3 77 1.7 NNW 7 9 4 5 1027.8 1027.9 0.0
29/09:00pm 8.4 5.5 4.4 76 1.7 N 9 13 5 7 1028.2 1028.4 0.0
29/08:30pm 8.6 5.3 4.8 77 1.7 N 11 15 6 8 1028.5 1028.7 0.0
29/08:00pm 8.4 5.8 4.4 76 1.7 N 7 11 4 6 1028.7 1028.9 0.0
29/07:30pm 8.8 5.5 4.4 74 1.9 N 11 13 6 7 1028.7 1028.9 0.0
29/07:00pm 8.8 5.5 4.4 74 1.9 N 11 15 6 8 1028.8 1029.0 0.0
29/06:30pm 8.9 5.2 4.3 73 2.0 NNE 13 17 7 9 1028.5 1028.7 0.0
29/06:00pm 8.8 5.4 4.0 72 2.1 N 11 15 6 8 1028.8 1029.0 0.0
29/05:30pm 8.8 5.3 3.4 69 2.3 N 11 17 6 9 1028.6 1028.8 0.0
29/05:00pm 9.8 5.1 3.1 63 2.9 N 17 24 9 13 1028.6 1028.8 0.0
29/04:30pm 10.3 6.1 3.6 63 2.9 NNW 15 24 8 13 1028.8 1029.0 0.0
29/04:00pm 11.2 6.6 3.5 59 3.4 NNW 17 26 9 14 1028.9 1029.1 0.0
29/03:30pm 11.6 6.7 3.9 59 3.4 N 19 28 10 15 1029.0 1029.2 0.0
29/03:00pm 11.7 6.5 3.7 58 3.5 NNW 20 32 11 17 1029.4 1029.6 0.0
29/02:30pm 11.9 7.4 4.2 59 3.5 N 17 28 9 15 1029.6 1029.8 0.0
29/02:00pm 12.5 7.4 4.0 56 3.8 NNW 20 33 11 18 1029.9 1030.1 0.0
29/01:30pm 12.3 7.5 4.8 60 3.4 N 19 33 10 18 1029.8 1030.0 0.0
29/01:00pm 12.6 7.7 4.1 56 3.8 N 19 30 10 16 1030.6 1030.8 0.0
29/12:30pm 12.3 7.9 5.0 61 3.4 N 17 28 9 15 1031.4 1031.6 0.0
29/12:00pm 12.0 7.6 4.7 61 3.3 N 17 26 9 14 1032.1 1032.3 0.0
29/11:30am 12.2 7.4 5.6 64 3.1 N 20 32 11 17 1032.3 1032.5 0.0
29/11:00am 12.1 7.8 6.8 70 2.5 N 19 28 10 15 1032.5 1032.7 0.0
29/10:30am 11.7 7.7 6.8 72 2.3 N 17 28 9 15 1032.9 1033.1 0.0
29/10:00am 10.7 8.6 6.5 75 2.0 NNE 7 13 4 7 1033.1 1033.3 0.0
29/09:30am 9.6 7.9 6.0 78 1.7 NNE 4 9 2 5 1033.4 1033.6 0.0
29/09:00am 7.7 5.6 6.0 89 0.8 E 6 9 3 5 1033.6 1033.8 0.0
29/08:30am 6.4 5.5 6.1 98 0.1 CALM 0 0 0 0 1033.5 1033.7 0.0
29/08:00am 4.8 3.1 4.1 95 0.3 E 2 6 1 3 1033.2 1033.4 0.0
29/07:30am 6.0 4.2 5.3 95 0.3 ESE 4 7 2 4 1033.0 1033.2 0.0
29/07:00am 6.7 5.1 6.3 97 0.2 E 4 11 2 6 1033.1 1033.3 0.0
29/06:30am 6.5 5.2 5.9 96 0.3 SE 2 7 1 4 1033.1 1033.3 0.0
29/06:00am 6.8 4.8 6.1 95 0.3 ESE 6 7 3 4 1032.8 1033.0 0.0
29/05:30am 7.1 6.3 6.7 97 0.2 CALM 0 0 0 0 1032.6 1032.8 0.0
29/05:00am 6.9 6.1 6.5 97 0.2 CALM 0 0 0 0 1032.5 1032.7 0.0
29/04:30am 7.0 6.2 6.7 98 0.1 CALM 0 0 0 0 1032.9 1033.1 0.0
29/04:00am 6.9 6.1 6.6 98 0.1 CALM 0 0 0 0 1032.9 1033.1 0.0
29/03:30am 6.8 6.0 6.5 98 0.1 CALM 0 4 0 2 1033.1 1033.3 0.0
29/03:00am 6.8 6.0 6.4 97 0.2 CALM 0 6 0 3 1033.3 1033.5 0.0
29/02:30am 6.7 5.9 6.3 97 0.2 CALM 0 0 0 0 1033.5 1033.7 0.0
29/02:00am 6.9 6.1 6.5 97 0.2 CALM 0 0 0 0 1033.2 1033.4 0.0
29/01:30am 6.8 5.5 6.2 96 0.3 E 2 7 1 4 1033.0 1033.2 0.0
29/01:00am 7.1 6.3 6.7 97 0.2 CALM 0 6 0 3 1033.6 1033.8 0.0
29/12:30am 7.3 6.6 6.9 97 0.2 CALM 0 0 0 0 1034.1 1034.3 0.0
29/12:00am 7.3 6.2 6.9 97 0.2 E 2 6 1 3 1034.0 1034.2 0.0
 
Date/Time
EST
Tmp

°C
App
Tmp
°C
Dew
Point
°C
Rel
Hum
%
Delta-T

°C
Wind Press
QNH
hPa
Press
MSL
hPa
Rain
since
9 am
mm
Dir
 
Spd
km/h
Gust
km/h
Spd
kts
Gust
kts
28/11:30pm 7.3 6.2 7.0 98 0.1 ESE 2 7 1 4 1034.0 1034.2 0.0
28/11:00pm 6.9 5.7 6.6 98 0.1 E 2 7 1 4 1034.0 1034.2 0.0
28/10:30pm 6.8 5.3 6.7 99 0.0 SSE 4 9 2 5 1034.3 1034.5 0.0
28/10:00pm 6.6 4.5 6.5 99 0.0 SSE 7 11 4 6 1034.3 1034.5 0.0
28/09:30pm 5.8 4.8 5.7 99 0.0 CALM 0 6 0 3 1034.2 1034.4 0.0
28/09:00pm 4.6 3.3 4.3 98 0.1 CALM 0 0 0 0 1034.3 1034.5 0.0
28/08:30pm 4.3 2.2 3.9 97 0.2 S 4 9 2 5 1034.3 1034.5 0.0
28/08:00pm 4.1 2.6 3.2 94 0.4 CALM 0 0 0 0 1034.2 1034.4 0.0
28/07:30pm 5.8 4.7 4.9 94 0.4 CALM 0 0 0 0 1034.2 1034.4 0.0

Latest Capital City Observations: Canberra | Sydney | Melbourne | Brisbane | Adelaide | Perth | Hobart | Darwin

Other Formats:

Comma delimited format used in spreadsheet applications
http://www.bom.gov.au/fwo/IDV60901/IDV60901.94864.axf

JavaScript Object Notation format (JSON) in row-major order
http://www.bom.gov.au/fwo/IDV60901/IDV60901.94864.json